Clearwater — WDG2196 — position and weather

sailwx.info

Track history (hours):
 
Tides and Currents Weather Stations Pressure Air Temp Water Temp Dewpoint Dewpoint Depression Visibility Wind Speed Wind Dir Waves Ship Positions

Clearwater

Owner: Shaver Transportation Company, Portland, OR. More information available from US FCC via Universal Licensing System and Coast Guard Vessel Documentation Center.

Last reported at 2018-Jul-16 08:27 UTC. Time now 2018-Jul-17 05:20 UTC.
Position N 45°37' W 122°02'.

Length 29 m; draft 3.3 m.

Type: Tug. MMSI: 367513140.

Date/timePositionNaut miles runAvg speedWind from/ knotsBaromVisibWave heightAir tempDewpointWater temp
2018-Jul-16 08:27N 45°37' W 122°02'4 7.5
2018-Jul-16 07:52N 45°35' W 122°08'3 7.7
2018-Jul-16 07:30N 45°34' W 122°12'4 7.5
2018-Jul-16 07:00N 45°33' W 122°17'4 7.2
2018-Jul-16 06:30N 45°34' W 122°22'4 7.2
2018-Jul-16 05:59N 45°34' W 122°27'4 7.6
2018-Jul-16 05:30N 45°35' W 122°32'4 7.9
2018-Jul-16 05:00N 45°36' W 122°37'4 8.1
2018-Jul-16 04:31N 45°38' W 122°42'4 7.7
2018-Jul-16 04:01N 45°41' W 122°46'4 8.2
2018-Jul-16 03:31N 45°45' W 122°46'4 8.9
2018-Jul-16 03:00N 45°49' W 122°48'4 8.8
2018-Jul-16 02:30N 45°54' W 122°48'5 9.1
2018-Jul-16 02:00N 45°58' W 122°49'5 9.3
2018-Jul-16 01:31N 46°02' W 122°53'4 7.7
2018-Jul-16 01:00N 46°05' W 122°56'1 1.8
2018-Jul-16 00:30N 46°06' W 122°56'0 0.1
2018-Jul-16 00:00N 46°06' W 122°57'1 2.2
2018-Jul-15 23:31N 46°05' W 122°55'0 0.5
2018-Jul-15 23:00N 46°05' W 122°56'0 0.2
2018-Jul-15 22:30N 46°05' W 122°55'0 0.0
2018-Jul-15 22:00N 46°05' W 122°55'1 1.7
2018-Jul-15 21:31N 46°06' W 122°56'0 0.2
2018-Jul-15 20:59N 46°06' W 122°56'0 0.0
2018-Jul-15 20:30N 46°06' W 122°56'0 0.0
2018-Jul-15 20:00N 46°06' W 122°56'0 0.0
2018-Jul-15 19:31N 46°06' W 122°56'0 0.0
2018-Jul-15 19:00N 46°06' W 122°56'0 0.0
2018-Jul-15 18:30N 46°06' W 122°56'0 0.0
2018-Jul-15 18:01N 46°06' W 122°56'0 0.0
2018-Jul-15 17:30N 46°06' W 122°56'1 2.1
2018-Jul-15 17:01N 46°05' W 122°55'0 0.0
2018-Jul-15 16:30N 46°05' W 122°55'0 0.2
2018-Jul-15 16:01N 46°05' W 122°55'1 1.2
2018-Jul-15 15:30N 46°06' W 122°56'1 1.2
2018-Jul-15 15:00N 46°05' W 122°55'1 1.9
2018-Jul-15 14:30N 46°06' W 122°56'1 2.1
2018-Jul-15 14:01N 46°05' W 122°55'2 3.3
2018-Jul-15 13:29N 46°04' W 122°54'4 7.5
2018-Jul-15 13:00N 46°01' W 122°51'4 7.4
2018-Jul-15 12:31N 45°58' W 122°49'4 7.4
2018-Jul-15 12:00N 45°54' W 122°48'4 7.6
2018-Jul-15 11:30N 45°50' W 122°47'4 7.2
2018-Jul-15 11:01N 45°47' W 122°46'4 8.8
2018-Jul-15 10:30N 45°42' W 122°46'4 8.0
2018-Jul-15 10:00N 45°39' W 122°44'1 1.7
2018-Jul-15 09:31N 45°38' W 122°43'2 3.1
2018-Jul-15 09:01N 45°39' W 122°45'1 2.0
2018-Jul-15 08:29N 45°39' W 122°46'4 7.4
2018-Jul-15 08:01N 45°35' W 122°46'2 4.6
2018-Jul-15 07:30N 45°34' W 122°44'0 0.0
2018-Jul-15 06:58N 45°34' W 122°44'0 0.0
2018-Jul-15 06:31N 45°34' W 122°44'0 0.0
2018-Jul-15 06:01N 45°34' W 122°44'0 0.0
2018-Jul-15 05:30N 45°34' W 122°44'0 0.0
2018-Jul-15 05:00N 45°34' W 122°44'0 0.0
2018-Jul-15 04:29N 45°34' W 122°44'0 0.0
2018-Jul-15 04:01N 45°34' W 122°44'0 0.0
2018-Jul-15 03:30N 45°34' W 122°44'0 0.0
2018-Jul-15 03:01N 45°34' W 122°44'0 0.0
2018-Jul-15 02:30N 45°34' W 122°44'0 0.0
2018-Jul-15 02:00N 45°34' W 122°44'0 0.0
2018-Jul-15 01:30N 45°34' W 122°44'0 0.0
2018-Jul-15 01:00N 45°34' W 122°44'0 0.0
2018-Jul-15 00:30N 45°34' W 122°44'0 0.0
2018-Jul-15 00:00N 45°34' W 122°44'0 0.0
2018-Jul-14 23:29N 45°34' W 122°44'4 8.0
2018-Jul-14 23:00N 45°37' W 122°47'2 4.8
2018-Jul-14 22:31N 45°39' W 122°45'1 1.7
2018-Jul-14 22:00N 45°39' W 122°44'1 1.7
2018-Jul-14 21:30N 45°38' W 122°43'0 0.5
2018-Jul-14 21:00N 45°38' W 122°42'0 0.4
2018-Jul-14 20:30N 45°38' W 122°43'1 1.5
2018-Jul-14 20:00N 45°38' W 122°44'3 5.9
2018-Jul-14 19:30N 45°37' W 122°47'4 8.2
2018-Jul-14 19:01N 45°34' W 122°44'0 0.1
2018-Jul-14 18:29N 45°34' W 122°44'0 0.1
2018-Jul-14 18:00N 45°34' W 122°44'0 0.0
2018-Jul-14 17:30N 45°34' W 122°44'0 0.0
2018-Jul-14 17:00N 45°34' W 122°44'0 0.0
2018-Jul-14 16:31N 45°34' W 122°44'0 0.1
2018-Jul-14 16:00N 45°34' W 122°44'0 0.1
2018-Jul-14 15:30N 45°34' W 122°44'0 0.0
2018-Jul-14 15:00N 45°34' W 122°44'0 0.1
2018-Jul-14 14:30N 45°34' W 122°44'0 0.0
2018-Jul-14 13:30N 45°34' W 122°44'0 0.1
2018-Jul-14 13:00N 45°34' W 122°44'0 0.1
2018-Jul-14 12:31N 45°34' W 122°44'0 0.0
2018-Jul-14 12:00N 45°34' W 122°44'0 0.1
2018-Jul-14 11:30N 45°34' W 122°44'0 0.1
2018-Jul-14 11:00N 45°34' W 122°44'0 0.1
2018-Jul-14 10:30N 45°34' W 122°44'0 0.1
2018-Jul-14 10:00N 45°34' W 122°44'0 0.0
2018-Jul-14 09:15N 45°34' W 122°44'0 0.0
2018-Jul-14 09:01N 45°34' W 122°44'0 0.0
2018-Jul-14 08:31N 45°34' W 122°44'0 0.0
2018-Jul-14 08:01N 45°34' W 122°44'0 0.0
2018-Jul-14 07:31N 45°34' W 122°44'0 0.0
2018-Jul-14 06:59N 45°34' W 122°44'0 0.0
2018-Jul-14 06:30N 45°34' W 122°44'0 0.0
2018-Jul-14 06:00N 45°34' W 122°44'0 0.0
2018-Jul-14 05:30N 45°34' W 122°44'0 0.1
2018-Jul-14 05:00N 45°34' W 122°44'0 0.1
2018-Jul-14 04:30N 45°34' W 122°44'0 0.1
2018-Jul-14 04:00N 45°34' W 122°44'0 0.1
2018-Jul-14 03:29N 45°34' W 122°44'0 0.0
2018-Jul-14 03:00N 45°34' W 122°44'0 0.0
2018-Jul-14 02:31N 45°34' W 122°44'0 0.0
2018-Jul-14 02:00N 45°34' W 122°44'0 0.0
2018-Jul-14 01:31N 45°34' W 122°44'0 0.0
2018-Jul-14 00:59N 45°34' W 122°44'0 0.0
2018-Jul-14 00:31N 45°34' W 122°44'0 0.0
2018-Jul-13 23:49N 45°34' W 122°44'0 0.0
2018-Jul-13 23:30N 45°34' W 122°44'0 0.0
2018-Jul-13 23:00N 45°34' W 122°44'0 0.0
2018-Jul-13 22:30N 45°34' W 122°44'0 0.0
2018-Jul-13 22:00N 45°34' W 122°44'0 0.0
2018-Jul-13 21:30N 45°34' W 122°44'0 0.1
2018-Jul-13 21:00N 45°34' W 122°44'0 0.1
2018-Jul-13 20:16N 45°34' W 122°44'0 0.0
2018-Jul-13 20:00N 45°34' W 122°44'0 0.1
2018-Jul-13 19:30N 45°34' W 122°44'0 0.1
2018-Jul-13 19:00N 45°34' W 122°44'0 0.1
2018-Jul-13 18:30N 45°34' W 122°44'0 0.1
2018-Jul-13 17:59N 45°34' W 122°44'0 0.0
2018-Jul-13 17:30N 45°34' W 122°44'0 0.0
2018-Jul-13 17:00N 45°34' W 122°44'0 0.0
2018-Jul-13 16:29N 45°34' W 122°44'0 0.0
2018-Jul-13 16:00N 45°34' W 122°44'0 0.0
2018-Jul-13 15:30N 45°34' W 122°44'0 0.1
2018-Jul-13 15:01N 45°34' W 122°44'6 5.9
2018-Jul-13 14:01N 45°39' W 122°46'1 1.1
2018-Jul-13 13:30N 45°39' W 122°45'1 1.5
2018-Jul-13 13:00N 45°39' W 122°44'0 1.0
2018-Jul-13 12:30N 45°38' W 122°44'0 0.0
2018-Jul-13 12:00N 45°38' W 122°44'1 1.2
2018-Jul-13 11:30N 45°38' W 122°43'3 6.3
2018-Jul-13 11:00N 45°37' W 122°39'3 5.2
2018-Jul-13 10:31N 45°36' W 122°35'4 7.4
2018-Jul-13 10:00N 45°35' W 122°30'4 7.4
2018-Jul-13 09:30N 45°34' W 122°25'4 7.4
2018-Jul-13 09:00N 45°33' W 122°20'4 7.1
2018-Jul-13 08:30N 45°33' W 122°15'4 7.4
2018-Jul-13 08:00N 45°35' W 122°10'4 6.8
2018-Jul-13 07:24N 45°36' W 122°05'2 0.1
2018-Jul-12 04:14N 45°35' W 122°07'2 6.7
2018-Jul-12 04:00N 45°35' W 122°09'3 6.7
2018-Jul-12 03:29N 45°33' W 122°14'1 2.5
2018-Jul-12 02:58N 45°33' W 122°16'1 1.6
2018-Jul-12 02:29N 45°33' W 122°15'3 5.3
2018-Jul-12 02:00N 45°34' W 122°11'  
2018-Jul-07 06:25N 45°36' W 122°03'3 6.9
2018-Jul-07 05:55N 45°35' W 122°07'3 6.8
2018-Jul-07 05:29N 45°34' W 122°12'3 6.6
2018-Jul-07 05:00N 45°33' W 122°15'3 6.4
2018-Jul-07 04:30N 45°33' W 122°20'3 5.3
2018-Jul-07 04:00N 45°35' W 122°23'3 5.4
2018-Jul-07 03:21N 45°35' W 122°28'2 6.3
2018-Jul-07 03:00N 45°35' W 122°31'3 6.3
2018-Jul-07 02:30N 45°36' W 122°36'3 6.5
2018-Jul-07 02:01N 45°37' W 122°40'3 6.7
2018-Jul-07 01:30N 45°39' W 122°44'0 0.6
2018-Jul-07 01:00N 45°39' W 122°45'0 0.0
2018-Jul-07 00:31N 45°39' W 122°45'0 0.0
2018-Jul-07 00:00N 45°39' W 122°45'0 0.0
2018-Jul-06 23:31N 45°39' W 122°45'0 0.0
2018-Jul-06 23:01N 45°39' W 122°45'3 5.1
2018-Jul-06 22:30N 45°37' W 122°47'3 5.7
2018-Jul-06 22:00N 45°34' W 122°44'1 1.9
2018-Jul-06 21:31N 45°34' W 122°44'0 0.0
2018-Jul-06 21:01N 45°34' W 122°44'0 0.0
2018-Jul-06 20:25N 45°34' W 122°44'0 0.0
2018-Jul-06 19:55N 45°34' W 122°44'0 0.0
2018-Jul-06 19:30N 45°34' W 122°44'0 0.0
2018-Jul-06 19:01N 45°34' W 122°44'0 0.0
2018-Jul-06 18:24N 45°34' W 122°44'0 0.0
2018-Jul-06 18:01N 45°34' W 122°44'0 0.0
2018-Jul-06 17:31N 45°34' W 122°44'0 0.0
2018-Jul-06 16:58N 45°34' W 122°44'0 0.0
2018-Jul-06 16:31N 45°34' W 122°44'0 0.0
2018-Jul-06 15:58N 45°34' W 122°44'0 0.0
2018-Jul-06 15:25N 45°34' W 122°44'0 0.0
2018-Jul-06 14:55N 45°34' W 122°44'0 0.0
2018-Jul-06 14:30N 45°34' W 122°44'0 0.0
2018-Jul-06 14:01N 45°34' W 122°44'0 0.0
2018-Jul-06 13:30N 45°34' W 122°44'0 0.0
2018-Jul-06 13:00N 45°34' W 122°44'0 0.0
2018-Jul-06 12:30N 45°34' W 122°44'0 0.0
2018-Jul-06 11:57N 45°34' W 122°44'0 0.0
2018-Jul-06 11:28N 45°34' W 122°44'0 0.0
2018-Jul-06 10:55N 45°34' W 122°44'0 0.0
2018-Jul-06 10:30N 45°34' W 122°44'0 0.0
2018-Jul-06 09:57N 45°34' W 122°44'0 0.0
2018-Jul-06 09:31N 45°34' W 122°44'0 0.0
2018-Jul-06 09:00N 45°34' W 122°44'2 4.3
2018-Jul-06 08:31N 45°35' W 122°46'  
Track history (hours):
 
Tides and Currents Weather Stations Pressure Air Temp Water Temp Dewpoint Dewpoint Depression Visibility Wind Speed Wind Dir Waves Ship Positions

Clearwater

Owner: Shaver Transportation Company, Portland, OR. More information available from US FCC via Universal Licensing System and Coast Guard Vessel Documentation Center.

Last reported at 2018-Jul-16 08:27 UTC. Time now 2018-Jul-17 05:20 UTC.
Position N 45°37' W 122°02'.

Length 29 m; draft 3.3 m.

Type: Tug. MMSI: 367513140.

Date/timePositionNaut miles runAvg speedWind from/ knotsBaromVisibWave heightAir tempDewpointWater temp
2018-Jul-16 08:27N 45°37' W 122°02'4 7.5
2018-Jul-16 07:52N 45°35' W 122°08'3 7.7
2018-Jul-16 07:30N 45°34' W 122°12'4 7.5
2018-Jul-16 07:00N 45°33' W 122°17'4 7.2
2018-Jul-16 06:30N 45°34' W 122°22'4 7.2
2018-Jul-16 05:59N 45°34' W 122°27'4 7.6
2018-Jul-16 05:30N 45°35' W 122°32'4 7.9
2018-Jul-16 05:00N 45°36' W 122°37'4 8.1
2018-Jul-16 04:31N 45°38' W 122°42'4 7.7
2018-Jul-16 04:01N 45°41' W 122°46'4 8.2
2018-Jul-16 03:31N 45°45' W 122°46'4 8.9
2018-Jul-16 03:00N 45°49' W 122°48'4 8.8
2018-Jul-16 02:30N 45°54' W 122°48'5 9.1
2018-Jul-16 02:00N 45°58' W 122°49'5 9.3
2018-Jul-16 01:31N 46°02' W 122°53'4 7.7
2018-Jul-16 01:00N 46°05' W 122°56'1 1.8
2018-Jul-16 00:30N 46°06' W 122°56'0 0.1
2018-Jul-16 00:00N 46°06' W 122°57'1 2.2
2018-Jul-15 23:31N 46°05' W 122°55'0 0.5
2018-Jul-15 23:00N 46°05' W 122°56'0 0.2
2018-Jul-15 22:30N 46°05' W 122°55'0 0.0
2018-Jul-15 22:00N 46°05' W 122°55'1 1.7
2018-Jul-15 21:31N 46°06' W 122°56'0 0.2
2018-Jul-15 20:59N 46°06' W 122°56'0 0.0
2018-Jul-15 20:30N 46°06' W 122°56'0 0.0
2018-Jul-15 20:00N 46°06' W 122°56'0 0.0
2018-Jul-15 19:31N 46°06' W 122°56'0 0.0
2018-Jul-15 19:00N 46°06' W 122°56'0 0.0
2018-Jul-15 18:30N 46°06' W 122°56'0 0.0
2018-Jul-15 18:01N 46°06' W 122°56'0 0.0
2018-Jul-15 17:30N 46°06' W 122°56'1 2.1
2018-Jul-15 17:01N 46°05' W 122°55'0 0.0
2018-Jul-15 16:30N 46°05' W 122°55'0 0.2
2018-Jul-15 16:01N 46°05' W 122°55'1 1.2
2018-Jul-15 15:30N 46°06' W 122°56'1 1.2
2018-Jul-15 15:00N 46°05' W 122°55'1 1.9
2018-Jul-15 14:30N 46°06' W 122°56'1 2.1
2018-Jul-15 14:01N 46°05' W 122°55'2 3.3
2018-Jul-15 13:29N 46°04' W 122°54'4 7.5
2018-Jul-15 13:00N 46°01' W 122°51'4 7.4
2018-Jul-15 12:31N 45°58' W 122°49'4 7.4
2018-Jul-15 12:00N 45°54' W 122°48'4 7.6
2018-Jul-15 11:30N 45°50' W 122°47'4 7.2
2018-Jul-15 11:01N 45°47' W 122°46'4 8.8
2018-Jul-15 10:30N 45°42' W 122°46'4 8.0
2018-Jul-15 10:00N 45°39' W 122°44'1 1.7
2018-Jul-15 09:31N 45°38' W 122°43'2 3.1
2018-Jul-15 09:01N 45°39' W 122°45'1 2.0
2018-Jul-15 08:29N 45°39' W 122°46'4 7.4
2018-Jul-15 08:01N 45°35' W 122°46'2 4.6
2018-Jul-15 07:30N 45°34' W 122°44'0 0.0
2018-Jul-15 06:58N 45°34' W 122°44'0 0.0
2018-Jul-15 06:31N 45°34' W 122°44'0 0.0
2018-Jul-15 06:01N 45°34' W 122°44'0 0.0
2018-Jul-15 05:30N 45°34' W 122°44'0 0.0
2018-Jul-15 05:00N 45°34' W 122°44'0 0.0
2018-Jul-15 04:29N 45°34' W 122°44'0 0.0
2018-Jul-15 04:01N 45°34' W 122°44'0 0.0
2018-Jul-15 03:30N 45°34' W 122°44'0 0.0
2018-Jul-15 03:01N 45°34' W 122°44'0 0.0
2018-Jul-15 02:30N 45°34' W 122°44'0 0.0
2018-Jul-15 02:00N 45°34' W 122°44'0 0.0
2018-Jul-15 01:30N 45°34' W 122°44'0 0.0
2018-Jul-15 01:00N 45°34' W 122°44'0 0.0
2018-Jul-15 00:30N 45°34' W 122°44'0 0.0
2018-Jul-15 00:00N 45°34' W 122°44'0 0.0
2018-Jul-14 23:29N 45°34' W 122°44'4 8.0
2018-Jul-14 23:00N 45°37' W 122°47'2 4.8
2018-Jul-14 22:31N 45°39' W 122°45'1 1.7
2018-Jul-14 22:00N 45°39' W 122°44'1 1.7
2018-Jul-14 21:30N 45°38' W 122°43'0 0.5
2018-Jul-14 21:00N 45°38' W 122°42'0 0.4
2018-Jul-14 20:30N 45°38' W 122°43'1 1.5
2018-Jul-14 20:00N 45°38' W 122°44'3 5.9
2018-Jul-14 19:30N 45°37' W 122°47'4 8.2
2018-Jul-14 19:01N 45°34' W 122°44'0 0.1
2018-Jul-14 18:29N 45°34' W 122°44'0 0.1
2018-Jul-14 18:00N 45°34' W 122°44'0 0.0
2018-Jul-14 17:30N 45°34' W 122°44'0 0.0
2018-Jul-14 17:00N 45°34' W 122°44'0 0.0
2018-Jul-14 16:31N 45°34' W 122°44'0 0.1
2018-Jul-14 16:00N 45°34' W 122°44'0 0.1
2018-Jul-14 15:30N 45°34' W 122°44'0 0.0
2018-Jul-14 15:00N 45°34' W 122°44'0 0.1
2018-Jul-14 14:30N 45°34' W 122°44'0 0.0
2018-Jul-14 13:30N 45°34' W 122°44'0 0.1
2018-Jul-14 13:00N 45°34' W 122°44'0 0.1
2018-Jul-14 12:31N 45°34' W 122°44'0 0.0
2018-Jul-14 12:00N 45°34' W 122°44'0 0.1
2018-Jul-14 11:30N 45°34' W 122°44'0 0.1
2018-Jul-14 11:00N 45°34' W 122°44'0 0.1
2018-Jul-14 10:30N 45°34' W 122°44'0 0.1
2018-Jul-14 10:00N 45°34' W 122°44'0 0.0
2018-Jul-14 09:15N 45°34' W 122°44'0 0.0
2018-Jul-14 09:01N 45°34' W 122°44'0 0.0
2018-Jul-14 08:31N 45°34' W 122°44'0 0.0
2018-Jul-14 08:01N 45°34' W 122°44'0 0.0
2018-Jul-14 07:31N 45°34' W 122°44'0 0.0
2018-Jul-14 06:59N 45°34' W 122°44'0 0.0
2018-Jul-14 06:30N 45°34' W 122°44'0 0.0
2018-Jul-14 06:00N 45°34' W 122°44'0 0.0
2018-Jul-14 05:30N 45°34' W 122°44'0 0.1
2018-Jul-14 05:00N 45°34' W 122°44'0 0.1
2018-Jul-14 04:30N 45°34' W 122°44'0 0.1
2018-Jul-14 04:00N 45°34' W 122°44'0 0.1
2018-Jul-14 03:29N 45°34' W 122°44'0 0.0
2018-Jul-14 03:00N 45°34' W 122°44'0 0.0
2018-Jul-14 02:31N 45°34' W 122°44'0 0.0
2018-Jul-14 02:00N 45°34' W 122°44'0 0.0
2018-Jul-14 01:31N 45°34' W 122°44'0 0.0
2018-Jul-14 00:59N 45°34' W 122°44'0 0.0
2018-Jul-14 00:31N 45°34' W 122°44'0 0.0
2018-Jul-13 23:49N 45°34' W 122°44'0 0.0
2018-Jul-13 23:30N 45°34' W 122°44'0 0.0
2018-Jul-13 23:00N 45°34' W 122°44'0 0.0
2018-Jul-13 22:30N 45°34' W 122°44'0 0.0
2018-Jul-13 22:00N 45°34' W 122°44'0 0.0
2018-Jul-13 21:30N 45°34' W 122°44'0 0.1
2018-Jul-13 21:00N 45°34' W 122°44'0 0.1
2018-Jul-13 20:16N 45°34' W 122°44'0 0.0
2018-Jul-13 20:00N 45°34' W 122°44'0 0.1
2018-Jul-13 19:30N 45°34' W 122°44'0 0.1
2018-Jul-13 19:00N 45°34' W 122°44'0 0.1
2018-Jul-13 18:30N 45°34' W 122°44'0 0.1
2018-Jul-13 17:59N 45°34' W 122°44'0 0.0
2018-Jul-13 17:30N 45°34' W 122°44'0 0.0
2018-Jul-13 17:00N 45°34' W 122°44'0 0.0
2018-Jul-13 16:29N 45°34' W 122°44'0 0.0
2018-Jul-13 16:00N 45°34' W 122°44'0 0.0
2018-Jul-13 15:30N 45°34' W 122°44'0 0.1
2018-Jul-13 15:01N 45°34' W 122°44'6 5.9
2018-Jul-13 14:01N 45°39' W 122°46'1 1.1
2018-Jul-13 13:30N 45°39' W 122°45'1 1.5
2018-Jul-13 13:00N 45°39' W 122°44'0 1.0
2018-Jul-13 12:30N 45°38' W 122°44'0 0.0
2018-Jul-13 12:00N 45°38' W 122°44'1 1.2
2018-Jul-13 11:30N 45°38' W 122°43'3 6.3
2018-Jul-13 11:00N 45°37' W 122°39'3 5.2
2018-Jul-13 10:31N 45°36' W 122°35'4 7.4
2018-Jul-13 10:00N 45°35' W 122°30'4 7.4
2018-Jul-13 09:30N 45°34' W 122°25'4 7.4
2018-Jul-13 09:00N 45°33' W 122°20'4 7.1
2018-Jul-13 08:30N 45°33' W 122°15'4 7.4
2018-Jul-13 08:00N 45°35' W 122°10'4 6.8
2018-Jul-13 07:24N 45°36' W 122°05'2 0.1
2018-Jul-12 04:14N 45°35' W 122°07'2 6.7
2018-Jul-12 04:00N 45°35' W 122°09'3 6.7
2018-Jul-12 03:29N 45°33' W 122°14'1 2.5
2018-Jul-12 02:58N 45°33' W 122°16'1 1.6
2018-Jul-12 02:29N 45°33' W 122°15'3 5.3
2018-Jul-12 02:00N 45°34' W 122°11'  
2018-Jul-07 06:25N 45°36' W 122°03'3 6.9
2018-Jul-07 05:55N 45°35' W 122°07'3 6.8
2018-Jul-07 05:29N 45°34' W 122°12'3 6.6
2018-Jul-07 05:00N 45°33' W 122°15'3 6.4
2018-Jul-07 04:30N 45°33' W 122°20'3 5.3
2018-Jul-07 04:00N 45°35' W 122°23'3 5.4
2018-Jul-07 03:21N 45°35' W 122°28'2 6.3
2018-Jul-07 03:00N 45°35' W 122°31'3 6.3
2018-Jul-07 02:30N 45°36' W 122°36'3 6.5
2018-Jul-07 02:01N 45°37' W 122°40'3 6.7
2018-Jul-07 01:30N 45°39' W 122°44'0 0.6
2018-Jul-07 01:00N 45°39' W 122°45'0 0.0
2018-Jul-07 00:31N 45°39' W 122°45'0 0.0
2018-Jul-07 00:00N 45°39' W 122°45'0 0.0
2018-Jul-06 23:31N 45°39' W 122°45'0 0.0
2018-Jul-06 23:01N 45°39' W 122°45'3 5.1
2018-Jul-06 22:30N 45°37' W 122°47'3 5.7
2018-Jul-06 22:00N 45°34' W 122°44'1 1.9
2018-Jul-06 21:31N 45°34' W 122°44'0 0.0
2018-Jul-06 21:01N 45°34' W 122°44'0 0.0
2018-Jul-06 20:25N 45°34' W 122°44'0 0.0
2018-Jul-06 19:55N 45°34' W 122°44'0 0.0
2018-Jul-06 19:30N 45°34' W 122°44'0 0.0
2018-Jul-06 19:01N 45°34' W 122°44'0 0.0
2018-Jul-06 18:24N 45°34' W 122°44'0 0.0
2018-Jul-06 18:01N 45°34' W 122°44'0 0.0
2018-Jul-06 17:31N 45°34' W 122°44'0 0.0
2018-Jul-06 16:58N 45°34' W 122°44'0 0.0
2018-Jul-06 16:31N 45°34' W 122°44'0 0.0
2018-Jul-06 15:58N 45°34' W 122°44'0 0.0
2018-Jul-06 15:25N 45°34' W 122°44'0 0.0
2018-Jul-06 14:55N 45°34' W 122°44'0 0.0
2018-Jul-06 14:30N 45°34' W 122°44'0 0.0
2018-Jul-06 14:01N 45°34' W 122°44'0 0.0
2018-Jul-06 13:30N 45°34' W 122°44'0 0.0
2018-Jul-06 13:00N 45°34' W 122°44'0 0.0
2018-Jul-06 12:30N 45°34' W 122°44'0 0.0
2018-Jul-06 11:57N 45°34' W 122°44'0 0.0
2018-Jul-06 11:28N 45°34' W 122°44'0 0.0
2018-Jul-06 10:55N 45°34' W 122°44'0 0.0
2018-Jul-06 10:30N 45°34' W 122°44'0 0.0
2018-Jul-06 09:57N 45°34' W 122°44'0 0.0
2018-Jul-06 09:31N 45°34' W 122°44'0 0.0
2018-Jul-06 09:00N 45°34' W 122°44'2 4.3
2018-Jul-06 08:31N 45°35' W 122°46'  

Dump ship's entire track history